createdAt,value
2022-09-26T00:01:34.049Z,68.00
2022-09-26T00:04:30.394Z,68.00
2022-09-26T00:06:59.822Z,68.20
2022-09-26T00:09:28.515Z,68.00
2022-09-26T00:11:55.589Z,67.80
2022-09-26T00:14:26.910Z,67.80
2022-09-26T00:16:54.481Z,67.80
2022-09-26T00:19:22.440Z,67.60
2022-09-26T00:21:49.486Z,67.40
2022-09-26T00:24:17.031Z,67.20
2022-09-26T00:26:44.038Z,67.10
2022-09-26T00:29:13.103Z,67.00
2022-09-26T00:31:44.899Z,67.70
2022-09-26T00:34:17.842Z,66.90
2022-09-26T00:36:48.252Z,67.40
2022-09-26T00:39:16.716Z,66.60
2022-09-26T00:41:44.227Z,66.60
2022-09-26T00:44:49.314Z,66.40
2022-09-26T00:47:38.688Z,66.50
2022-09-26T00:50:23.540Z,66.30
2022-09-26T00:53:00.231Z,66.30
2022-09-26T00:55:35.175Z,66.60
2022-09-26T00:58:39.987Z,66.40
2022-09-26T01:01:07.917Z,66.90
2022-09-26T01:03:38.376Z,66.60
2022-09-26T01:06:05.745Z,66.90
2022-09-26T01:08:39.780Z,67.10
2022-09-26T01:11:11.566Z,67.40
2022-09-26T01:13:43.497Z,67.40
2022-09-26T01:16:10.630Z,67.70
2022-09-26T01:18:38.424Z,67.80
2022-09-26T01:21:37.813Z,68.00
2022-09-26T01:24:26.795Z,68.50
2022-09-26T01:27:25.346Z,68.60
2022-09-26T01:30:11.983Z,68.40
2022-09-26T01:33:01.605Z,68.30
2022-09-26T01:35:44.053Z,68.30
2022-09-26T01:38:35.882Z,68.00
2022-09-26T01:41:30.364Z,68.20
2022-09-26T01:44:23.009Z,68.10
2022-09-26T01:47:21.160Z,68.10
2022-09-26T01:50:03.636Z,68.00
2022-09-26T01:52:55.973Z,68.00
2022-09-26T01:55:32.016Z,67.80
2022-09-26T01:58:44.219Z,67.80
2022-09-26T02:01:15.557Z,68.00
2022-09-26T02:03:53.250Z,67.70
2022-09-26T02:06:38.134Z,67.70
2022-09-26T02:09:15.805Z,67.80
2022-09-26T02:11:48.790Z,67.80
2022-09-26T02:14:32.558Z,67.80
2022-09-26T02:17:11.163Z,68.20
2022-09-26T02:19:59.940Z,68.00
2022-09-26T02:22:31.065Z,68.10
2022-09-26T02:24:59.554Z,68.00
2022-09-26T02:27:27.613Z,68.00
2022-09-26T02:29:55.129Z,68.10
2022-09-26T02:32:33.192Z,68.00
2022-09-26T02:35:01.185Z,68.10
2022-09-26T02:37:32.385Z,68.10
2022-09-26T02:40:00.981Z,68.10
2022-09-26T02:42:39.635Z,68.20
2022-09-26T02:45:32.928Z,68.20
2022-09-26T02:48:38.947Z,68.20
2022-09-26T02:51:32.932Z,68.20
2022-09-26T02:54:42.141Z,67.70
2022-09-26T02:57:29.671Z,67.70
2022-09-26T03:00:17.609Z,67.80
2022-09-26T03:02:52.611Z,67.90
2022-09-26T03:05:23.414Z,67.80
2022-09-26T03:07:57.776Z,68.00
2022-09-26T03:10:30.286Z,68.20
2022-09-26T03:13:09.136Z,68.30
2022-09-26T03:15:39.167Z,68.40
2022-09-26T03:18:11.966Z,68.30
2022-09-26T03:20:39.001Z,68.40
2022-09-26T03:23:05.863Z,68.30
2022-09-26T03:25:33.527Z,68.50
2022-09-26T03:28:05.930Z,68.50
2022-09-26T03:30:34.173Z,68.50
2022-09-26T03:33:21.525Z,69.00
2022-09-26T03:35:49.206Z,68.70
2022-09-26T03:38:16.256Z,68.90
2022-09-26T03:40:49.891Z,68.90
2022-09-26T03:46:40.249Z,69.00
2022-09-26T03:49:10.843Z,69.00
2022-09-26T03:54:28.591Z,69.50
2022-09-26T03:56:55.526Z,69.40
2022-09-26T03:59:22.465Z,69.60
2022-09-26T04:01:51.463Z,69.80
2022-09-26T04:04:18.301Z,69.90
2022-09-26T04:06:45.752Z,70.00
2022-09-26T04:09:17.061Z,70.20
2022-09-26T04:11:48.181Z,70.30
2022-09-26T04:14:15.101Z,70.40
2022-09-26T04:16:43.732Z,70.50
2022-09-26T04:19:23.209Z,70.60
2022-09-26T04:21:52.172Z,70.60
2022-09-26T04:24:21.239Z,70.70
2022-09-26T04:26:48.437Z,70.80
2022-09-26T04:29:16.621Z,70.80
2022-09-26T04:31:53.990Z,70.80
2022-09-26T04:34:27.585Z,70.80
2022-09-26T04:36:55.689Z,70.80
2022-09-26T04:39:23.174Z,70.90
2022-09-26T04:42:15.756Z,70.80
2022-09-26T04:44:43.901Z,70.80
2022-09-26T04:47:11.293Z,71.00
2022-09-26T04:50:13.653Z,71.00
2022-09-26T04:52:41.405Z,71.00
2022-09-26T04:55:09.152Z,71.10
2022-09-26T04:57:37.991Z,71.20
2022-09-26T05:00:07.557Z,71.40
2022-09-26T05:02:34.670Z,71.60
2022-09-26T05:05:01.557Z,71.70
2022-09-26T05:07:29.505Z,71.90
2022-09-26T05:09:56.397Z,72.10
2022-09-26T05:12:24.763Z,72.20
2022-09-26T05:14:53.951Z,72.30
2022-09-26T05:17:21.508Z,72.30
2022-09-26T05:19:49.094Z,72.30
2022-09-26T05:22:29.623Z,72.40
2022-09-26T05:25:14.846Z,72.40
2022-09-26T05:27:41.833Z,72.40
2022-09-26T05:30:09.616Z,72.40
2022-09-26T05:32:36.473Z,72.50
2022-09-26T05:35:05.624Z,72.60
2022-09-26T05:37:36.687Z,72.80
2022-09-26T05:40:22.581Z,73.00
2022-09-26T05:42:51.870Z,73.10
2022-09-26T05:45:19.805Z,73.30
2022-09-26T05:47:48.669Z,73.40
2022-09-26T05:50:16.500Z,73.70
2022-09-26T05:52:44.406Z,73.90
2022-09-26T05:55:21.842Z,74.00
2022-09-26T05:58:10.049Z,74.10
2022-09-26T06:01:18.204Z,74.10
2022-09-26T06:03:48.168Z,74.20
2022-09-26T06:06:26.782Z,74.30
2022-09-26T06:09:01.908Z,74.30
2022-09-26T06:11:46.214Z,74.30
2022-09-26T06:14:13.363Z,74.50
2022-09-26T06:16:40.346Z,74.40
2022-09-26T06:19:07.557Z,74.60
2022-09-26T06:21:38.179Z,74.80
2022-09-26T06:24:13.057Z,74.80
2022-09-26T06:26:41.160Z,74.90
2022-09-26T06:29:10.841Z,75.00
2022-09-26T06:31:40.742Z,74.70
2022-09-26T06:34:16.399Z,74.60
2022-09-26T06:37:08.017Z,74.60
2022-09-26T06:39:36.930Z,74.20
2022-09-26T06:42:07.230Z,74.10
2022-09-26T06:44:55.195Z,74.00
2022-09-26T06:47:25.181Z,73.70
2022-09-26T06:50:06.872Z,73.60
2022-09-26T06:52:37.179Z,73.30
2022-09-26T06:55:07.017Z,73.10
2022-09-26T06:57:40.308Z,72.70
2022-09-26T07:00:14.418Z,72.20
2022-09-26T07:03:16.810Z,71.90
2022-09-26T07:05:56.835Z,71.50
2022-09-26T07:08:50.059Z,70.60
2022-09-26T07:14:02.287Z,69.60
2022-09-26T07:19:39.715Z,68.70
2022-09-26T07:22:09.443Z,68.10
2022-09-26T07:24:48.655Z,67.30
2022-09-26T07:27:17.081Z,66.50
2022-09-26T07:29:47.318Z,65.70
2022-09-26T07:32:15.792Z,65.00
2022-09-26T07:35:09.779Z,64.00
2022-09-26T07:37:36.923Z,63.30
2022-09-26T07:40:05.989Z,62.60
2022-09-26T07:42:33.260Z,62.00
2022-09-26T07:48:05.710Z,60.70
2022-09-26T07:50:58.112Z,59.50
2022-09-26T07:53:39.304Z,58.70
2022-09-26T07:56:24.550Z,58.20
2022-09-26T07:59:18.710Z,57.50
2022-09-26T08:02:23.048Z,57.10
2022-09-26T08:04:50.238Z,55.90
2022-09-26T08:07:18.915Z,56.00
2022-09-26T08:09:56.820Z,55.00
2022-09-26T08:13:01.694Z,54.40
2022-09-26T08:15:48.877Z,53.20
2022-09-26T08:18:23.687Z,52.30
2022-09-26T08:21:16.334Z,51.40
2022-09-26T08:23:44.989Z,50.30
2022-09-26T08:26:32.102Z,50.00
2022-09-26T08:29:04.489Z,50.00
2022-09-26T08:34:28.063Z,49.70
2022-09-26T08:37:15.443Z,49.60
2022-09-26T08:40:02.761Z,48.70
2022-09-26T08:43:35.762Z,48.00
2022-09-26T08:47:01.990Z,47.50
2022-09-26T08:50:12.171Z,48.00
2022-09-26T08:53:16.087Z,45.40
2022-09-26T08:55:53.657Z,44.50
2022-09-26T08:58:43.380Z,45.00
2022-09-26T09:01:19.914Z,44.40
2022-09-26T09:05:02.476Z,43.80
2022-09-26T09:07:32.368Z,42.80
2022-09-26T09:10:06.383Z,42.70
2022-09-26T09:13:40.515Z,42.40
2022-09-26T09:17:03.350Z,43.00
2022-09-26T09:20:11.912Z,43.70
2022-09-26T09:23:23.882Z,43.90
2022-09-26T09:29:53.401Z,43.80
2022-09-26T09:32:57.133Z,43.20
2022-09-26T09:35:49.772Z,42.10
2022-09-26T09:38:49.157Z,41.80
2022-09-26T09:41:47.377Z,40.90
2022-09-26T09:44:47.366Z,39.10
2022-09-26T09:47:16.996Z,38.00
2022-09-26T09:49:48.045Z,38.00
2022-09-26T09:52:48.462Z,38.30
2022-09-26T09:55:50.320Z,37.80
2022-09-26T09:58:45.316Z,38.70
2022-09-26T10:01:47.473Z,38.50
2022-09-26T10:05:25.962Z,39.10
2022-09-26T10:07:59.017Z,38.00
2022-09-26T10:14:46.113Z,37.00
2022-09-26T10:17:31.303Z,37.00
2022-09-26T10:20:45.638Z,36.60
2022-09-26T10:23:33.772Z,35.30
2022-09-26T10:26:06.084Z,35.90
2022-09-26T10:28:44.615Z,34.00
2022-09-26T10:31:22.564Z,32.90
2022-09-26T10:34:24.691Z,33.10
2022-09-26T10:36:52.665Z,31.30
2022-09-26T10:39:41.170Z,31.80
2022-09-26T10:42:20.006Z,30.90
2022-09-26T10:44:50.529Z,31.30
2022-09-26T10:47:25.003Z,30.20
2022-09-26T10:50:24.942Z,29.60
2022-09-26T10:53:22.420Z,29.00
2022-09-26T10:55:57.362Z,29.30
2022-09-26T10:58:29.773Z,29.10
2022-09-26T11:01:03.513Z,29.50
2022-09-26T11:07:29.055Z,30.80
2022-09-26T11:10:13.748Z,31.20
2022-09-26T11:13:21.990Z,32.20
2022-09-26T11:16:07.269Z,30.80
2022-09-26T11:19:22.172Z,30.70
2022-09-26T11:22:18.928Z,31.10
2022-09-26T11:25:25.548Z,31.40
2022-09-26T11:28:27.326Z,31.60
2022-09-26T11:31:29.325Z,32.00
2022-09-26T11:34:23.900Z,32.70
2022-09-26T11:37:13.312Z,33.50
2022-09-26T11:40:38.984Z,34.10
2022-09-26T11:43:55.373Z,34.80
2022-09-26T11:47:00.408Z,35.30
2022-09-26T11:50:36.745Z,35.70
2022-09-26T11:53:57.949Z,36.30
2022-09-26T11:57:15.288Z,36.60
2022-09-26T12:00:16.360Z,36.90
2022-09-26T12:03:21.836Z,37.10
2022-09-26T12:06:04.183Z,37.40
2022-09-26T12:08:38.561Z,37.60
2022-09-26T12:11:54.226Z,37.90
2022-09-26T12:14:49.055Z,38.10
2022-09-26T12:17:41.429Z,38.40
2022-09-26T12:20:34.603Z,38.70
2022-09-26T12:23:28.388Z,38.90
2022-09-26T12:26:26.303Z,39.60
2022-09-26T12:29:17.930Z,39.80
2022-09-26T12:32:19.008Z,40.20
2022-09-26T12:34:58.535Z,40.50
2022-09-26T12:37:58.350Z,41.40
2022-09-26T12:40:33.943Z,41.00
2022-09-26T12:43:58.283Z,40.00
2022-09-26T12:47:05.217Z,38.00
2022-09-26T12:49:58.417Z,38.00
2022-09-26T12:53:17.329Z,37.70
2022-09-26T12:56:08.144Z,37.10
2022-09-26T12:59:17.517Z,36.10
2022-09-26T13:02:46.782Z,35.50
2022-09-26T13:05:43.257Z,35.70
2022-09-26T13:09:00.830Z,35.30
2022-09-26T13:11:39.683Z,35.00
2022-09-26T13:14:46.945Z,33.60
2022-09-26T13:17:36.300Z,32.40
2022-09-26T13:20:26.310Z,31.50
2022-09-26T13:23:13.031Z,31.30
2022-09-26T13:25:59.304Z,31.10
2022-09-26T13:28:38.287Z,31.00
2022-09-26T13:31:20.574Z,31.50
2022-09-26T13:34:16.870Z,31.60
2022-09-26T13:36:47.923Z,31.90
2022-09-26T13:39:34.050Z,32.40
2022-09-26T13:42:21.344Z,32.90
2022-09-26T13:45:01.946Z,33.40
2022-09-26T13:47:55.063Z,34.20
2022-09-26T13:50:48.861Z,34.80
2022-09-26T13:53:29.027Z,35.40
2022-09-26T13:56:36.129Z,35.80
2022-09-26T13:59:12.833Z,36.30
2022-09-26T14:02:18.888Z,36.80
2022-09-26T14:04:48.529Z,36.90
2022-09-26T14:07:36.551Z,37.40
2022-09-26T14:10:07.751Z,37.20
2022-09-26T14:13:08.313Z,36.90
2022-09-26T14:15:47.872Z,37.00
2022-09-26T14:18:21.218Z,36.90
2022-09-26T14:21:34.247Z,36.80
2022-09-26T14:24:38.383Z,36.70
2022-09-26T14:27:12.132Z,36.10
2022-09-26T14:29:38.855Z,36.40
2022-09-26T14:32:43.182Z,36.60
2022-09-26T14:35:25.570Z,36.60
2022-09-26T14:38:04.362Z,36.90
2022-09-26T14:40:37.731Z,36.80
2022-09-26T14:43:19.518Z,37.00
2022-09-26T14:45:59.902Z,37.10
2022-09-26T14:48:40.218Z,37.30
2022-09-26T14:51:16.332Z,37.40
2022-09-26T14:53:48.922Z,37.30
2022-09-26T14:56:16.378Z,37.20
2022-09-26T14:58:55.384Z,37.10
2022-09-26T15:01:36.779Z,37.20
2022-09-26T15:04:30.492Z,37.20
2022-09-26T15:07:25.223Z,37.40
2022-09-26T15:10:00.413Z,37.40
2022-09-26T15:12:56.489Z,37.60
2022-09-26T15:15:45.783Z,37.70
2022-09-26T15:18:27.785Z,37.80
2022-09-26T15:21:28.258Z,37.90
2022-09-26T15:23:58.425Z,38.90
2022-09-26T15:26:33.949Z,38.30
2022-09-26T15:29:01.450Z,38.40
2022-09-26T15:31:43.544Z,38.30
2022-09-26T15:34:31.245Z,38.20
2022-09-26T15:37:00.202Z,38.40
2022-09-26T15:39:33.325Z,38.30
2022-09-26T15:42:49.417Z,38.60
2022-09-26T15:45:33.252Z,38.80
2022-09-26T15:48:20.105Z,38.80
2022-09-26T15:51:02.951Z,39.00
2022-09-26T15:53:50.726Z,39.20
2022-09-26T15:56:43.904Z,39.30
2022-09-26T16:02:28.256Z,39.60
2022-09-26T16:04:55.887Z,39.70
2022-09-26T16:07:30.708Z,39.90
2022-09-26T16:09:58.822Z,40.30
2022-09-26T16:12:30.324Z,40.20
2022-09-26T16:15:05.675Z,41.00
2022-09-26T16:17:36.578Z,40.70
2022-09-26T16:20:11.684Z,40.80
2022-09-26T16:22:45.743Z,40.90
2022-09-26T16:25:15.845Z,41.00
2022-09-26T16:27:43.316Z,41.30
2022-09-26T16:30:25.481Z,41.40
2022-09-26T16:33:07.968Z,41.70
2022-09-26T16:35:38.322Z,41.90
2022-09-26T16:38:32.648Z,42.00
2022-09-26T16:41:31.369Z,42.30
2022-09-26T16:44:33.596Z,42.50
2022-09-26T16:47:05.582Z,42.60
2022-09-26T16:49:48.228Z,42.90
2022-09-26T16:52:28.771Z,43.30
2022-09-26T16:54:59.691Z,43.50
2022-09-26T16:57:31.429Z,43.80
2022-09-26T17:00:26.429Z,44.10
2022-09-26T17:02:53.431Z,44.30
2022-09-26T17:05:21.827Z,44.40
2022-09-26T17:07:50.165Z,44.80
2022-09-26T17:10:19.674Z,45.10
2022-09-26T17:12:53.208Z,45.30
2022-09-26T17:15:27.898Z,45.50
2022-09-26T17:17:56.733Z,46.40
2022-09-26T17:20:24.739Z,46.10
2022-09-26T17:22:51.706Z,46.80
2022-09-26T17:25:18.765Z,46.20
2022-09-26T17:27:48.095Z,46.40
2022-09-26T17:30:18.605Z,46.60
2022-09-26T17:32:50.110Z,46.80
2022-09-26T17:35:25.876Z,46.90
2022-09-26T17:37:54.259Z,47.20
2022-09-26T17:40:28.472Z,46.70
2022-09-26T17:42:59.680Z,46.70
2022-09-26T17:45:36.678Z,47.10
2022-09-26T17:48:10.979Z,47.30
2022-09-26T17:50:38.845Z,47.40
2022-09-26T17:53:07.983Z,47.60
2022-09-26T17:55:35.881Z,47.80
2022-09-26T17:58:05.158Z,47.90
2022-09-26T18:00:43.353Z,48.10
2022-09-26T18:03:39.461Z,48.20
2022-09-26T18:06:07.983Z,48.40
2022-09-26T18:08:37.366Z,48.30
2022-09-26T18:11:10.813Z,48.40
2022-09-26T18:13:47.340Z,48.50
2022-09-26T18:16:16.165Z,48.60
2022-09-26T18:18:43.997Z,48.30
2022-09-26T18:21:17.494Z,48.50
2022-09-26T18:24:19.457Z,49.00
2022-09-26T18:26:50.634Z,49.30
2022-09-26T18:29:33.051Z,49.00
2022-09-26T18:32:01.105Z,49.50
2022-09-26T18:34:28.081Z,49.40
2022-09-26T18:37:00.101Z,49.70
2022-09-26T18:39:28.856Z,49.90
2022-09-26T18:42:03.621Z,50.00
2022-09-26T18:44:35.239Z,50.30
2022-09-26T18:47:13.227Z,50.20
2022-09-26T18:49:40.962Z,50.40
2022-09-26T18:52:17.911Z,50.40
2022-09-26T18:54:46.015Z,50.60
2022-09-26T18:57:31.910Z,50.60
2022-09-26T19:00:00.090Z,50.60
2022-09-26T19:02:33.686Z,50.70
2022-09-26T19:05:02.624Z,50.90
2022-09-26T19:07:32.538Z,51.00
2022-09-26T19:09:59.494Z,51.10
2022-09-26T19:12:26.624Z,51.10
2022-09-26T19:14:53.496Z,51.20
2022-09-26T19:17:20.951Z,51.30
2022-09-26T19:19:47.972Z,51.50
2022-09-26T19:22:17.471Z,51.40
2022-09-26T19:24:50.231Z,51.40
2022-09-26T19:27:24.825Z,51.60
2022-09-26T19:30:17.145Z,51.60
2022-09-26T19:32:49.163Z,51.70
2022-09-26T19:35:41.292Z,51.70
2022-09-26T19:38:24.570Z,51.80
2022-09-26T19:40:53.619Z,51.80
2022-09-26T19:43:22.111Z,51.70
2022-09-26T19:45:52.390Z,51.90
2022-09-26T19:48:22.396Z,51.90
2022-09-26T19:50:50.730Z,52.00
2022-09-26T19:53:22.380Z,52.00
2022-09-26T19:55:53.459Z,52.10
2022-09-26T19:58:27.726Z,51.90
2022-09-26T20:00:58.265Z,52.10
2022-09-26T20:03:39.942Z,52.10
2022-09-26T20:06:17.908Z,52.40
2022-09-26T20:08:45.018Z,52.40
2022-09-26T20:11:13.436Z,52.30
2022-09-26T20:13:59.062Z,52.50
2022-09-26T20:16:26.526Z,52.50
2022-09-26T20:18:55.764Z,52.50
2022-09-26T20:21:27.373Z,52.60
2022-09-26T20:23:57.413Z,52.80
2022-09-26T20:26:24.910Z,52.90
2022-09-26T20:28:51.911Z,52.90
2022-09-26T20:31:28.589Z,53.00
2022-09-26T20:34:00.037Z,53.20
2022-09-26T20:36:32.841Z,53.20
2022-09-26T20:39:06.476Z,53.30
2022-09-26T20:41:42.130Z,53.30
2022-09-26T20:44:28.110Z,53.40
2022-09-26T20:46:59.223Z,53.40
2022-09-26T20:49:32.020Z,53.40
2022-09-26T20:52:00.491Z,53.50
2022-09-26T20:54:30.920Z,53.60
2022-09-26T20:56:59.332Z,53.60
2022-09-26T20:59:26.880Z,53.70
2022-09-26T21:01:56.750Z,53.80
2022-09-26T21:04:32.577Z,53.80
2022-09-26T21:06:59.742Z,53.90
2022-09-26T21:09:26.709Z,53.90
2022-09-26T21:11:53.762Z,54.00
2022-09-26T21:14:20.720Z,53.90
2022-09-26T21:17:24.001Z,54.00
2022-09-26T21:19:51.440Z,54.10
2022-09-26T21:22:38.954Z,54.10
2022-09-26T21:25:14.117Z,54.10
2022-09-26T21:27:41.037Z,54.10
2022-09-26T21:30:14.668Z,54.10
2022-09-26T21:32:49.645Z,54.20
2022-09-26T21:35:19.625Z,54.20
2022-09-26T21:37:50.646Z,54.30
2022-09-26T21:40:20.104Z,54.40
2022-09-26T21:42:51.143Z,54.40
2022-09-26T21:45:22.473Z,54.40
2022-09-26T21:47:55.721Z,54.50
2022-09-26T21:50:25.478Z,55.00
2022-09-26T21:53:05.071Z,54.50
2022-09-26T21:55:38.816Z,54.60
2022-09-26T21:58:12.936Z,54.60
2022-09-26T22:00:40.686Z,54.70
2022-09-26T22:03:07.689Z,54.70
2022-09-26T22:05:34.779Z,54.80
2022-09-26T22:08:02.081Z,54.80
2022-09-26T22:10:29.586Z,54.90
2022-09-26T22:12:56.492Z,55.10
2022-09-26T22:15:23.832Z,55.20
2022-09-26T22:17:52.869Z,55.20
2022-09-26T22:20:19.771Z,55.30
2022-09-26T22:22:46.731Z,55.40
2022-09-26T22:25:14.030Z,55.50
2022-09-26T22:27:41.671Z,55.60
2022-09-26T22:30:09.693Z,55.70
2022-09-26T22:32:36.784Z,55.70
2022-09-26T22:35:04.424Z,55.80
2022-09-26T22:37:31.511Z,55.80
2022-09-26T22:39:58.600Z,55.90
2022-09-26T22:42:25.534Z,56.00
2022-09-26T22:44:52.433Z,56.10
2022-09-26T22:47:22.183Z,56.10
2022-09-26T22:49:49.552Z,56.20
2022-09-26T22:52:16.638Z,56.80
2022-09-26T22:54:43.470Z,56.30
2022-09-26T22:57:11.303Z,56.40
2022-09-26T22:59:39.608Z,56.60
2022-09-26T23:02:06.593Z,56.60
2022-09-26T23:04:48.466Z,56.70
2022-09-26T23:07:18.850Z,56.70
2022-09-26T23:09:46.644Z,56.80
2022-09-26T23:12:13.550Z,56.90
2022-09-26T23:14:40.508Z,57.10
2022-09-26T23:17:07.576Z,57.30
2022-09-26T23:19:34.580Z,57.30
2022-09-26T23:22:01.895Z,57.40
2022-09-26T23:24:28.808Z,57.50
2022-09-26T23:26:58.658Z,57.60
2022-09-26T23:29:26.404Z,57.70
2022-09-26T23:31:53.406Z,57.70
2022-09-26T23:34:20.800Z,57.70
2022-09-26T23:36:47.877Z,57.70
2022-09-26T23:39:15.132Z,57.80
2022-09-26T23:41:42.185Z,57.80
2022-09-26T23:44:09.817Z,57.80
2022-09-26T23:46:36.811Z,57.80
2022-09-26T23:49:04.112Z,58.00
2022-09-26T23:51:32.605Z,57.90
2022-09-26T23:54:00.029Z,57.90
2022-09-26T23:56:27.170Z,57.90
2022-09-26T23:58:57.198Z,57.90
